createdAt,value
2017-03-09T00:00:57.874Z,0
2017-03-09T00:02:11.405Z,0
2017-03-09T00:03:25.780Z,0
2017-03-09T00:04:40.645Z,0
2017-03-09T00:05:54.128Z,0
2017-03-09T00:07:07.922Z,0
2017-03-09T00:08:21.875Z,0
2017-03-09T00:09:36.340Z,0
2017-03-09T00:10:50.671Z,0
2017-03-09T00:12:04.638Z,0
2017-03-09T00:13:18.192Z,0
2017-03-09T00:14:31.808Z,0
2017-03-09T00:15:45.724Z,0
2017-03-09T00:16:59.610Z,0
2017-03-09T00:18:14.349Z,0
2017-03-09T00:19:28.218Z,0
2017-03-09T00:20:42.107Z,0
2017-03-09T00:21:55.647Z,0
2017-03-09T00:23:09.558Z,0
2017-03-09T00:24:23.536Z,0
2017-03-09T00:25:37.441Z,0
2017-03-09T00:26:51.505Z,0
2017-03-09T00:28:05.001Z,0
2017-03-09T00:29:18.925Z,0
2017-03-09T00:30:33.422Z,0
2017-03-09T00:31:47.210Z,0
2017-03-09T00:33:01.554Z,0
2017-03-09T00:34:15.491Z,0
2017-03-09T00:35:29.841Z,0
2017-03-09T00:36:43.336Z,0
2017-03-09T00:37:58.054Z,0
2017-03-09T00:39:12.434Z,0
2017-03-09T00:40:26.408Z,0
2017-03-09T00:41:39.874Z,0
2017-03-09T00:42:54.422Z,0
2017-03-09T00:44:09.108Z,0
2017-03-09T00:45:23.227Z,0
2017-03-09T00:46:36.721Z,0
2017-03-09T00:47:50.290Z,0
2017-03-09T00:49:03.779Z,0
2017-03-09T00:50:20.376Z,0
2017-03-09T00:51:34.269Z,0
2017-03-09T00:52:48.670Z,0
2017-03-09T00:54:02.745Z,0
2017-03-09T00:55:17.142Z,0
2017-03-09T00:56:31.583Z,0
2017-03-09T00:57:45.145Z,0
2017-03-09T00:58:59.158Z,0
2017-03-09T01:00:12.679Z,0
2017-03-09T01:01:26.770Z,0
2017-03-09T01:02:41.635Z,0
2017-03-09T01:03:55.166Z,0
2017-03-09T01:05:09.123Z,0
2017-03-09T01:06:23.131Z,0
2017-03-09T01:07:36.625Z,0
2017-03-09T01:08:50.453Z,0
2017-03-09T01:10:04.383Z,0
2017-03-09T01:11:17.809Z,0
2017-03-09T01:12:31.409Z,0
2017-03-09T01:13:44.879Z,0
2017-03-09T01:14:58.775Z,0
2017-03-09T01:16:12.897Z,0
2017-03-09T01:17:26.531Z,0
2017-03-09T01:18:40.448Z,0
2017-03-09T01:19:53.944Z,0
2017-03-09T01:21:07.807Z,0
2017-03-09T01:22:22.118Z,0
2017-03-09T01:23:35.602Z,0
2017-03-09T01:25:15.264Z,0
2017-03-09T01:26:29.203Z,0
2017-03-09T01:27:43.187Z,0
2017-03-09T01:28:57.141Z,0
2017-03-09T01:30:10.994Z,0
2017-03-09T01:31:24.581Z,0
2017-03-09T01:32:38.923Z,0
2017-03-09T01:33:52.482Z,0
2017-03-09T01:35:06.014Z,0
2017-03-09T01:36:19.774Z,0
2017-03-09T01:37:34.295Z,0
2017-03-09T01:38:48.151Z,0
2017-03-09T01:40:03.320Z,0
2017-03-09T01:41:16.861Z,0
2017-03-09T01:42:30.735Z,0
2017-03-09T01:43:44.247Z,0
2017-03-09T01:44:58.052Z,0
2017-03-09T01:46:11.689Z,0
2017-03-09T01:47:25.600Z,0
2017-03-09T01:48:39.109Z,0
2017-03-09T01:49:52.797Z,0
2017-03-09T01:51:07.151Z,0
2017-03-09T01:52:20.754Z,0
2017-03-09T01:53:34.288Z,0
2017-03-09T01:54:48.163Z,0
2017-03-09T01:56:07.266Z,0
2017-03-09T01:57:28.360Z,0
2017-03-09T01:58:41.953Z,0
2017-03-09T02:00:00.514Z,0
2017-03-09T02:01:16.053Z,0
2017-03-09T02:02:29.491Z,0
2017-03-09T02:03:43.433Z,0
2017-03-09T02:04:56.877Z,0
2017-03-09T02:06:10.303Z,0
2017-03-09T02:07:25.966Z,0
2017-03-09T02:08:39.887Z,0
2017-03-09T02:09:53.446Z,0
2017-03-09T02:11:06.957Z,0
2017-03-09T02:12:20.361Z,0
2017-03-09T02:13:33.849Z,0
2017-03-09T02:14:47.571Z,0
2017-03-09T02:16:00.992Z,0
2017-03-09T02:17:14.437Z,0
2017-03-09T02:18:27.865Z,0
2017-03-09T02:19:41.431Z,0
2017-03-09T02:20:55.155Z,0
2017-03-09T02:22:08.639Z,0
2017-03-09T02:23:22.540Z,0
2017-03-09T02:24:36.097Z,0
2017-03-09T02:25:49.542Z,0
2017-03-09T02:27:03.333Z,0
2017-03-09T02:28:16.774Z,0
2017-03-09T02:29:30.760Z,0
2017-03-09T02:30:44.680Z,0
2017-03-09T02:31:58.944Z,0
2017-03-09T02:33:13.101Z,0
2017-03-09T02:34:26.502Z,0
2017-03-09T02:35:40.552Z,0
2017-03-09T02:36:53.982Z,0
2017-03-09T02:38:07.475Z,0
2017-03-09T02:39:21.188Z,0
2017-03-09T02:40:34.669Z,0
2017-03-09T02:41:48.320Z,0
2017-03-09T02:43:02.062Z,0
2017-03-09T02:44:15.928Z,0
2017-03-09T02:45:29.763Z,0
2017-03-09T02:46:43.337Z,0
2017-03-09T02:47:56.834Z,0
2017-03-09T02:49:10.251Z,0
2017-03-09T02:50:23.697Z,0
2017-03-09T02:51:37.518Z,0
2017-03-09T02:52:51.797Z,0
2017-03-09T02:54:05.243Z,0
2017-03-09T02:55:18.695Z,0
2017-03-09T02:56:32.668Z,0
2017-03-09T02:57:46.370Z,0
2017-03-09T02:59:00.227Z,0
2017-03-09T03:00:14.110Z,0
2017-03-09T03:01:27.623Z,0
2017-03-09T03:02:41.593Z,0
2017-03-09T03:03:55.279Z,0
2017-03-09T03:05:08.752Z,0
2017-03-09T03:06:22.172Z,0
2017-03-09T03:07:35.649Z,0
2017-03-09T03:08:49.599Z,0
2017-03-09T03:10:03.336Z,0
2017-03-09T03:11:16.793Z,0
2017-03-09T03:12:30.263Z,0
2017-03-09T03:13:43.705Z,0
2017-03-09T03:14:57.154Z,0
2017-03-09T03:16:10.892Z,0
2017-03-09T03:17:24.320Z,0
2017-03-09T03:18:37.812Z,0
2017-03-09T03:19:51.213Z,0
2017-03-09T03:21:05.049Z,0
2017-03-09T03:22:18.776Z,0
2017-03-09T03:23:34.408Z,0
2017-03-09T03:24:47.860Z,0
2017-03-09T03:26:01.294Z,0
2017-03-09T03:27:15.589Z,0
2017-03-09T03:28:30.276Z,0
2017-03-09T03:29:43.770Z,0
2017-03-09T03:30:57.642Z,0
2017-03-09T03:32:11.069Z,0
2017-03-09T03:33:24.663Z,0
2017-03-09T03:34:38.505Z,0
2017-03-09T03:35:52.406Z,0
2017-03-09T03:37:05.894Z,0
2017-03-09T03:38:19.429Z,0
2017-03-09T03:39:33.372Z,0
2017-03-09T03:40:47.239Z,0
2017-03-09T03:42:00.762Z,0
2017-03-09T03:43:14.234Z,0
2017-03-09T03:44:28.034Z,0
2017-03-09T03:45:41.664Z,0
2017-03-09T03:46:55.533Z,0
2017-03-09T03:48:09.056Z,0
2017-03-09T03:49:22.887Z,0
2017-03-09T03:50:36.875Z,0
2017-03-09T03:51:50.486Z,0
2017-03-09T03:53:04.445Z,0
2017-03-09T03:54:24.358Z,0
2017-03-09T03:55:38.853Z,0
2017-03-09T03:56:52.925Z,0
2017-03-09T03:58:06.667Z,0
2017-03-09T03:59:20.882Z,0
2017-03-09T04:00:34.480Z,0
2017-03-09T04:01:48.041Z,0
2017-03-09T04:03:01.500Z,0
2017-03-09T04:04:15.803Z,0
2017-03-09T04:05:29.578Z,0
2017-03-09T04:06:43.118Z,0
2017-03-09T04:07:57.011Z,0
2017-03-09T04:09:11.356Z,0
2017-03-09T04:10:24.861Z,0
2017-03-09T04:11:38.657Z,0
2017-03-09T04:12:52.118Z,0
2017-03-09T04:14:05.795Z,0
2017-03-09T04:15:19.675Z,0
2017-03-09T04:16:33.777Z,0
2017-03-09T04:17:48.080Z,0
2017-03-09T04:19:01.984Z,0
2017-03-09T04:20:15.434Z,0
2017-03-09T04:24:44.147Z,0
2017-03-09T04:25:57.610Z,0
2017-03-09T04:27:11.908Z,0
2017-03-09T04:28:25.445Z,0
2017-03-09T04:29:38.985Z,0
2017-03-09T04:30:52.717Z,0
2017-03-09T04:32:06.759Z,0
2017-03-09T04:33:21.026Z,0
2017-03-09T04:34:34.732Z,0
2017-03-09T04:35:48.721Z,0
2017-03-09T04:37:02.869Z,0
2017-03-09T04:38:16.746Z,0
2017-03-09T04:39:30.651Z,0
2017-03-09T04:40:44.245Z,0
2017-03-09T04:42:00.345Z,0
2017-03-09T04:43:14.086Z,0
2017-03-09T04:44:27.947Z,0
2017-03-09T04:45:41.409Z,0
2017-03-09T04:46:54.944Z,0
2017-03-09T04:48:08.765Z,0
2017-03-09T04:49:22.973Z,0
2017-03-09T04:50:36.781Z,0
2017-03-09T04:51:50.760Z,0
2017-03-09T04:53:04.338Z,0
2017-03-09T04:54:17.820Z,0
2017-03-09T04:55:32.458Z,0
2017-03-09T04:56:46.702Z,0
2017-03-09T04:58:00.234Z,0
2017-03-09T04:59:13.743Z,0
2017-03-09T05:00:27.372Z,0
2017-03-09T05:01:42.089Z,0
2017-03-09T05:02:55.814Z,0
2017-03-09T05:04:09.402Z,0
2017-03-09T05:05:23.357Z,0
2017-03-09T05:06:37.001Z,0
2017-03-09T05:07:51.375Z,0
2017-03-09T05:09:04.849Z,0
2017-03-09T05:10:18.315Z,0
2017-03-09T05:11:32.193Z,0
2017-03-09T05:12:45.659Z,0
2017-03-09T05:13:59.417Z,0
2017-03-09T05:15:12.871Z,0
2017-03-09T05:16:26.284Z,0
2017-03-09T05:17:39.809Z,0
2017-03-09T05:18:53.290Z,0
2017-03-09T05:20:07.514Z,0
2017-03-09T05:21:20.926Z,0
2017-03-09T05:22:34.961Z,0
2017-03-09T05:23:48.816Z,0
2017-03-09T05:25:02.289Z,0
2017-03-09T05:26:16.040Z,0
2017-03-09T05:27:29.875Z,0
2017-03-09T05:28:43.346Z,0
2017-03-09T05:29:56.862Z,0
2017-03-09T05:31:10.350Z,0
2017-03-09T05:32:24.642Z,0
2017-03-09T05:33:38.158Z,0
2017-03-09T05:34:52.161Z,0
2017-03-09T05:36:05.590Z,0
2017-03-09T05:37:19.608Z,0
2017-03-09T05:38:33.405Z,0
2017-03-09T05:40:44.538Z,0
2017-03-09T05:43:27.844Z,0
2017-03-09T05:47:47.135Z,0
2017-03-09T05:49:00.963Z,0
2017-03-09T05:50:14.440Z,0
2017-03-09T05:51:27.865Z,0
2017-03-09T05:52:41.312Z,0
2017-03-09T05:53:54.860Z,0
2017-03-09T05:55:08.604Z,0
2017-03-09T05:56:22.884Z,0
2017-03-09T05:57:36.306Z,0
2017-03-09T05:58:49.716Z,0
2017-03-09T06:00:03.248Z,0
2017-03-09T06:01:16.966Z,0
2017-03-09T06:02:30.559Z,5
2017-03-09T06:03:46.188Z,5
2017-03-09T06:04:59.707Z,5
2017-03-09T06:06:13.141Z,5
2017-03-09T06:07:27.277Z,5
2017-03-09T06:08:41.286Z,5
2017-03-09T06:09:54.894Z,5
2017-03-09T06:11:09.727Z,5
2017-03-09T06:12:23.165Z,5
2017-03-09T06:13:37.184Z,5
2017-03-09T06:14:50.693Z,10
2017-03-09T06:16:04.960Z,10
2017-03-09T06:17:18.416Z,10
2017-03-09T06:18:31.927Z,15
2017-03-09T06:19:46.051Z,15
2017-03-09T06:20:59.977Z,15
2017-03-09T06:22:13.476Z,15
2017-03-09T06:23:26.942Z,15
2017-03-09T06:24:41.312Z,15
2017-03-09T06:25:55.161Z,15
2017-03-09T06:27:08.772Z,15
2017-03-09T06:28:22.655Z,10
2017-03-09T06:29:36.098Z,15
2017-03-09T06:30:49.609Z,15
2017-03-09T06:32:03.409Z,15
2017-03-09T06:33:16.881Z,15
2017-03-09T06:34:30.697Z,15
2017-03-09T06:35:44.314Z,15
2017-03-09T06:36:58.639Z,15
2017-03-09T06:38:12.395Z,15
2017-03-09T06:39:26.253Z,15
2017-03-09T06:40:39.903Z,15
2017-03-09T06:41:53.584Z,15
2017-03-09T06:43:07.870Z,15
2017-03-09T06:44:21.708Z,20
2017-03-09T06:45:35.156Z,20
2017-03-09T06:46:49.190Z,25
2017-03-09T06:48:02.641Z,30
2017-03-09T06:49:16.094Z,30
2017-03-09T06:50:29.981Z,25
2017-03-09T06:51:43.980Z,25
2017-03-09T06:53:29.490Z,25
2017-03-09T06:54:42.942Z,25
2017-03-09T06:55:56.397Z,25
2017-03-09T06:57:09.944Z,25
2017-03-09T06:58:26.512Z,25
2017-03-09T06:59:40.365Z,25
2017-03-09T07:00:53.853Z,25
2017-03-09T07:02:07.861Z,25
2017-03-09T07:03:21.728Z,25
2017-03-09T07:04:35.400Z,25
2017-03-09T07:05:48.872Z,25
2017-03-09T07:07:02.429Z,30
2017-03-09T07:08:15.957Z,35
2017-03-09T07:09:29.403Z,35
2017-03-09T07:10:42.834Z,45
2017-03-09T07:11:56.784Z,50
2017-03-09T07:13:10.261Z,50
2017-03-09T07:14:23.691Z,40
2017-03-09T07:15:37.610Z,35
2017-03-09T07:16:51.060Z,35
2017-03-09T07:18:04.556Z,30
2017-03-09T07:19:18.851Z,25
2017-03-09T07:20:34.501Z,20
2017-03-09T07:21:47.946Z,25
2017-03-09T07:23:01.495Z,30
2017-03-09T07:24:15.030Z,30
2017-03-09T07:25:29.341Z,30
2017-03-09T07:26:42.812Z,25
2017-03-09T07:27:56.294Z,25
2017-03-09T07:29:09.810Z,25
2017-03-09T07:30:23.285Z,25
2017-03-09T07:31:36.713Z,25
2017-03-09T07:32:50.177Z,25
2017-03-09T07:34:03.768Z,25
2017-03-09T07:35:17.665Z,20
2017-03-09T07:36:31.122Z,20
2017-03-09T07:37:45.209Z,20
2017-03-09T07:38:58.676Z,15
2017-03-09T07:40:12.196Z,20
2017-03-09T07:41:25.665Z,20
2017-03-09T07:42:39.178Z,20
2017-03-09T07:43:52.644Z,20
2017-03-09T07:45:06.558Z,20
2017-03-09T07:46:20.019Z,20
2017-03-09T07:47:33.484Z,20
2017-03-09T07:48:46.947Z,20
2017-03-09T07:50:00.512Z,25
2017-03-09T07:51:13.957Z,20
2017-03-09T07:52:27.885Z,20
2017-03-09T07:53:41.326Z,20
2017-03-09T07:54:54.965Z,15
2017-03-09T07:56:08.526Z,20
2017-03-09T07:57:21.999Z,20
2017-03-09T07:58:35.449Z,25
2017-03-09T07:59:48.933Z,25
2017-03-09T08:01:02.502Z,25
2017-03-09T08:02:15.950Z,30
2017-03-09T08:03:29.378Z,35
2017-03-09T08:04:42.784Z,35
2017-03-09T08:05:56.446Z,35
2017-03-09T08:07:09.870Z,40
2017-03-09T08:08:25.347Z,35
2017-03-09T08:09:39.205Z,30
2017-03-09T08:10:55.711Z,20
2017-03-09T08:12:10.637Z,20
2017-03-09T08:13:25.645Z,15
2017-03-09T08:14:43.695Z,20
2017-03-09T08:15:57.479Z,25
2017-03-09T08:17:55.712Z,30
2017-03-09T08:19:09.169Z,30
2017-03-09T08:20:22.607Z,30
2017-03-09T08:21:36.130Z,25
2017-03-09T08:22:49.984Z,25
2017-03-09T08:25:07.646Z,25
2017-03-09T08:26:21.115Z,25
2017-03-09T08:27:34.673Z,30
2017-03-09T08:28:48.064Z,30
2017-03-09T08:30:01.505Z,35
2017-03-09T08:31:15.977Z,40
2017-03-09T08:32:29.930Z,50
2017-03-09T08:33:43.391Z,60
2017-03-09T08:34:57.254Z,65
2017-03-09T08:36:10.669Z,55
2017-03-09T08:37:24.763Z,45
2017-03-09T08:39:53.337Z,45
2017-03-09T08:41:06.791Z,45
2017-03-09T08:42:20.235Z,50
2017-03-09T08:43:33.741Z,50
2017-03-09T08:44:47.223Z,45
2017-03-09T08:46:00.690Z,40
2017-03-09T08:47:14.125Z,40
2017-03-09T08:48:27.658Z,40
2017-03-09T08:49:41.111Z,45
2017-03-09T08:50:54.955Z,55
2017-03-09T08:52:08.419Z,60
2017-03-09T08:53:21.956Z,60
2017-03-09T08:54:35.496Z,50
2017-03-09T08:55:48.964Z,40
2017-03-09T08:57:02.490Z,40
2017-03-09T08:58:16.349Z,40
2017-03-09T08:59:30.234Z,45
2017-03-09T09:00:43.732Z,50
2017-03-09T09:01:57.223Z,55
2017-03-09T09:03:10.677Z,60
2017-03-09T09:04:24.402Z,55
2017-03-09T09:05:37.840Z,50
2017-03-09T09:06:51.290Z,45
2017-03-09T09:08:05.145Z,40
2017-03-09T09:09:18.993Z,40
2017-03-09T09:10:32.469Z,40
2017-03-09T09:11:45.904Z,45
2017-03-09T09:13:00.364Z,50
2017-03-09T09:14:13.799Z,60
2017-03-09T09:15:27.650Z,65
2017-03-09T09:16:41.135Z,65
2017-03-09T09:17:54.708Z,70
2017-03-09T09:19:08.583Z,70
2017-03-09T09:20:22.030Z,65
2017-03-09T09:21:35.456Z,60
2017-03-09T09:22:49.589Z,55
2017-03-09T09:24:03.068Z,50
2017-03-09T09:25:16.624Z,50
2017-03-09T09:26:30.073Z,45
2017-03-09T09:27:43.498Z,40
2017-03-09T09:28:57.962Z,40
2017-03-09T09:30:11.446Z,35
2017-03-09T09:31:25.175Z,30
2017-03-09T09:32:38.642Z,30
2017-03-09T09:33:52.174Z,30
2017-03-09T09:35:05.629Z,35
2017-03-09T09:36:19.050Z,35
2017-03-09T09:37:33.517Z,35
2017-03-09T09:38:46.986Z,35
2017-03-09T09:40:00.508Z,40
2017-03-09T09:41:13.963Z,45
2017-03-09T09:42:27.872Z,55
2017-03-09T09:43:41.772Z,75
2017-03-09T09:44:55.357Z,90
2017-03-09T09:46:09.213Z,80
2017-03-09T09:47:22.676Z,70
2017-03-09T09:48:37.047Z,60
2017-03-09T09:49:50.587Z,55
2017-03-09T09:51:04.570Z,60
2017-03-09T09:52:18.437Z,65
2017-03-09T09:53:32.349Z,70
2017-03-09T09:54:48.159Z,75
2017-03-09T09:56:02.009Z,90
2017-03-09T09:57:15.481Z,115
2017-03-09T09:58:28.957Z,125
2017-03-09T09:59:42.414Z,130
2017-03-09T10:00:55.994Z,135
2017-03-09T10:02:09.889Z,145
2017-03-09T10:03:23.381Z,150
2017-03-09T10:04:36.922Z,140
2017-03-09T10:05:50.555Z,130
2017-03-09T10:07:04.416Z,120
2017-03-09T10:08:18.310Z,120
2017-03-09T10:09:32.251Z,120
2017-03-09T10:10:46.538Z,115
2017-03-09T10:12:00.043Z,110
2017-03-09T10:13:13.615Z,115
2017-03-09T10:14:27.534Z,125
2017-03-09T10:15:41.035Z,120
2017-03-09T10:16:55.067Z,105
2017-03-09T10:18:09.010Z,95
2017-03-09T10:19:23.340Z,85
2017-03-09T10:20:36.846Z,80
2017-03-09T10:21:50.448Z,90
2017-03-09T10:23:03.989Z,95
2017-03-09T10:24:18.725Z,110
2017-03-09T10:25:32.301Z,130
2017-03-09T10:26:46.574Z,125
2017-03-09T10:28:00.126Z,130
2017-03-09T10:29:13.639Z,135
2017-03-09T10:30:27.619Z,130
2017-03-09T10:31:41.960Z,150
2017-03-09T10:32:55.993Z,140
2017-03-09T10:34:10.375Z,145
2017-03-09T10:35:24.047Z,145
2017-03-09T10:36:38.282Z,120
2017-03-09T10:37:51.924Z,125
2017-03-09T10:39:05.833Z,115
2017-03-09T10:40:19.337Z,115
2017-03-09T10:41:32.963Z,130
2017-03-09T10:42:46.964Z,145
2017-03-09T10:44:00.837Z,150
2017-03-09T10:45:14.768Z,140
2017-03-09T10:46:28.479Z,135
2017-03-09T10:47:42.057Z,160
2017-03-09T10:48:55.563Z,155
2017-03-09T10:50:09.921Z,160
2017-03-09T10:51:23.832Z,140
2017-03-09T10:52:37.313Z,125
2017-03-09T10:53:50.899Z,135
2017-03-09T10:55:05.066Z,130
2017-03-09T10:56:18.566Z,120
2017-03-09T10:57:32.514Z,115
2017-03-09T10:58:46.108Z,115
2017-03-09T11:00:00.009Z,110
2017-03-09T11:01:13.830Z,105
2017-03-09T11:02:27.754Z,85
2017-03-09T11:03:41.397Z,80
2017-03-09T11:04:55.666Z,100
2017-03-09T11:06:09.577Z,115
2017-03-09T11:07:24.243Z,115
2017-03-09T11:08:38.215Z,120
2017-03-09T11:09:52.258Z,125
2017-03-09T11:11:08.040Z,145
2017-03-09T11:12:21.711Z,165
2017-03-09T11:13:35.618Z,175
2017-03-09T11:14:49.119Z,180
2017-03-09T11:16:03.030Z,240
2017-03-09T11:17:16.565Z,280
2017-03-09T11:18:30.881Z,245
2017-03-09T11:19:44.853Z,205
2017-03-09T11:20:58.516Z,200
2017-03-09T11:22:12.303Z,190
2017-03-09T11:23:25.811Z,215
2017-03-09T11:24:39.332Z,255
2017-03-09T11:25:53.752Z,270
2017-03-09T11:27:07.426Z,250
2017-03-09T11:28:21.360Z,205
2017-03-09T11:29:35.263Z,225
2017-03-09T11:30:49.232Z,255
2017-03-09T11:32:03.547Z,245
2017-03-09T11:33:17.761Z,260
2017-03-09T11:34:31.283Z,250
2017-03-09T11:35:44.829Z,225
2017-03-09T11:36:58.335Z,275
2017-03-09T11:38:12.252Z,245
2017-03-09T11:39:26.156Z,240
2017-03-09T11:40:39.646Z,225
2017-03-09T11:41:53.616Z,200
2017-03-09T11:43:07.082Z,195
2017-03-09T11:44:21.627Z,185
2017-03-09T11:45:35.152Z,220
2017-03-09T11:46:48.705Z,235
2017-03-09T11:48:02.208Z,215
2017-03-09T11:49:16.130Z,230
2017-03-09T11:50:29.780Z,240
2017-03-09T11:51:43.240Z,175
2017-03-09T11:52:56.818Z,200
2017-03-09T11:54:10.707Z,150
2017-03-09T11:55:24.234Z,180
2017-03-09T11:56:38.163Z,195
2017-03-09T11:57:52.216Z,220
2017-03-09T11:59:06.138Z,185
2017-03-09T12:00:19.730Z,220
2017-03-09T12:01:33.734Z,200
2017-03-09T12:02:47.336Z,175
2017-03-09T12:04:00.800Z,165
2017-03-09T12:05:14.277Z,175
2017-03-09T12:06:28.282Z,210
2017-03-09T12:07:41.826Z,205
2017-03-09T12:08:55.675Z,205
2017-03-09T12:10:09.148Z,185
2017-03-09T12:11:23.068Z,140
2017-03-09T12:12:36.515Z,110
2017-03-09T12:13:50.091Z,110
2017-03-09T12:15:03.608Z,145
2017-03-09T12:16:17.508Z,160
2017-03-09T12:17:31.033Z,150
2017-03-09T12:18:45.119Z,150
2017-03-09T12:19:59.036Z,150
2017-03-09T12:21:12.951Z,140
2017-03-09T12:22:26.499Z,145
2017-03-09T12:23:40.113Z,135
2017-03-09T12:24:54.004Z,135
2017-03-09T12:26:07.492Z,135
2017-03-09T12:27:23.168Z,135
2017-03-09T12:28:37.123Z,135
2017-03-09T12:29:50.716Z,135
2017-03-09T12:31:04.315Z,135
2017-03-09T12:32:18.361Z,135
2017-03-09T12:33:31.896Z,130
2017-03-09T12:34:45.493Z,135
2017-03-09T12:35:58.958Z,130
2017-03-09T12:37:12.877Z,135
2017-03-09T12:38:27.151Z,130
2017-03-09T12:39:40.744Z,130
2017-03-09T12:40:54.328Z,130
2017-03-09T12:42:08.031Z,140
2017-03-09T12:43:21.918Z,145
2017-03-09T12:44:35.435Z,135
2017-03-09T12:45:49.059Z,125
2017-03-09T12:47:02.941Z,130
2017-03-09T12:48:16.503Z,130
2017-03-09T12:49:30.791Z,130
2017-03-09T12:50:44.862Z,140
2017-03-09T12:51:59.114Z,150
2017-03-09T12:53:13.133Z,150
2017-03-09T12:54:26.711Z,140
2017-03-09T12:55:40.247Z,145
2017-03-09T12:56:54.199Z,135
2017-03-09T12:58:07.999Z,175
2017-03-09T12:59:21.935Z,170
2017-03-09T13:00:35.596Z,135
2017-03-09T13:01:49.154Z,135
2017-03-09T13:03:02.680Z,135
2017-03-09T13:04:16.243Z,135
2017-03-09T13:05:29.709Z,155
2017-03-09T13:06:44.100Z,125
2017-03-09T13:07:58.022Z,125
2017-03-09T13:09:11.540Z,135
2017-03-09T13:10:25.561Z,140
2017-03-09T13:11:39.877Z,135
2017-03-09T13:12:53.384Z,150
2017-03-09T13:14:06.940Z,140
2017-03-09T13:15:21.324Z,140
2017-03-09T13:16:35.344Z,140
2017-03-09T13:17:48.825Z,145
2017-03-09T13:19:02.341Z,145
2017-03-09T13:20:15.886Z,140
2017-03-09T13:21:30.030Z,130
2017-03-09T13:22:43.999Z,145
2017-03-09T13:23:58.332Z,170
2017-03-09T13:25:11.825Z,190
2017-03-09T13:26:25.458Z,215
2017-03-09T13:27:39.680Z,200
2017-03-09T13:28:53.153Z,155
2017-03-09T13:30:06.635Z,135
2017-03-09T13:31:20.224Z,140
2017-03-09T13:32:33.863Z,140
2017-03-09T13:33:47.811Z,130
2017-03-09T13:35:01.314Z,150
2017-03-09T13:36:15.237Z,145
2017-03-09T13:37:29.721Z,175
2017-03-09T13:38:44.023Z,175
2017-03-09T13:39:57.888Z,165
2017-03-09T13:41:11.325Z,145
2017-03-09T13:42:24.832Z,150
2017-03-09T13:43:41.759Z,125
2017-03-09T13:44:55.242Z,110
2017-03-09T13:46:08.715Z,90
2017-03-09T13:47:22.193Z,85
2017-03-09T13:48:35.704Z,65
2017-03-09T13:49:49.258Z,45
2017-03-09T13:51:02.697Z,45
2017-03-09T13:52:16.190Z,55
2017-03-09T13:53:30.757Z,70
2017-03-09T13:54:44.266Z,75
2017-03-09T13:55:58.143Z,95
2017-03-09T13:57:11.621Z,95
2017-03-09T13:58:25.129Z,85
2017-03-09T13:59:39.387Z,90
2017-03-09T14:00:52.814Z,100
2017-03-09T14:02:06.709Z,110
2017-03-09T14:03:20.190Z,105
2017-03-09T14:04:34.195Z,95
2017-03-09T14:05:48.044Z,85
2017-03-09T14:07:01.936Z,75
2017-03-09T14:08:15.367Z,70
2017-03-09T14:09:29.254Z,75
2017-03-09T14:10:42.766Z,80
2017-03-09T14:11:56.491Z,80
2017-03-09T14:13:10.040Z,85
2017-03-09T14:14:23.953Z,85
2017-03-09T14:15:56.675Z,100
2017-03-09T14:17:10.119Z,105
2017-03-09T14:18:23.603Z,95
2017-03-09T14:19:37.888Z,80
2017-03-09T14:20:51.876Z,75
2017-03-09T14:22:05.361Z,80
2017-03-09T14:23:18.907Z,75
2017-03-09T14:24:32.403Z,75
2017-03-09T14:25:45.889Z,90
2017-03-09T14:26:59.834Z,105
2017-03-09T14:28:14.610Z,125
2017-03-09T14:29:28.136Z,135
2017-03-09T14:30:41.861Z,135
2017-03-09T14:31:55.402Z,110
2017-03-09T14:33:08.875Z,115
2017-03-09T14:34:22.331Z,115
2017-03-09T14:35:36.404Z,110
2017-03-09T14:36:50.011Z,115
2017-03-09T14:38:03.490Z,120
2017-03-09T14:39:16.951Z,110
2017-03-09T14:40:30.412Z,110
2017-03-09T14:41:43.995Z,110
2017-03-09T14:42:57.622Z,110
2017-03-09T14:44:11.547Z,105
2017-03-09T14:45:25.103Z,115
2017-03-09T14:47:55.264Z,130
2017-03-09T14:49:08.736Z,115
2017-03-09T14:50:22.798Z,105
2017-03-09T14:51:37.195Z,105
2017-03-09T14:52:51.141Z,110
2017-03-09T14:54:05.393Z,115
2017-03-09T14:55:19.755Z,105
2017-03-09T14:56:33.319Z,120
2017-03-09T14:57:46.831Z,110
2017-03-09T14:59:45.052Z,100
2017-03-09T15:00:58.561Z,160
2017-03-09T15:02:14.281Z,155
2017-03-09T15:03:28.163Z,130
2017-03-09T15:04:41.739Z,120
2017-03-09T15:05:55.199Z,120
2017-03-09T15:07:09.132Z,130
2017-03-09T15:08:22.611Z,135
2017-03-09T15:09:36.156Z,130
2017-03-09T15:10:49.745Z,130
2017-03-09T15:12:03.803Z,135
2017-03-09T15:13:17.504Z,135
2017-03-09T15:14:31.078Z,150
2017-03-09T15:15:45.615Z,140
2017-03-09T15:16:59.131Z,150
2017-03-09T15:18:12.623Z,170
2017-03-09T15:19:26.136Z,160
2017-03-09T15:20:39.700Z,180
2017-03-09T15:21:53.626Z,185
2017-03-09T15:23:07.180Z,160
2017-03-09T15:24:20.650Z,135
2017-03-09T15:25:34.151Z,115
2017-03-09T15:26:47.728Z,105
2017-03-09T15:28:01.227Z,80
2017-03-09T15:29:57.440Z,45
2017-03-09T15:31:10.891Z,40
2017-03-09T15:32:25.225Z,40
2017-03-09T15:33:38.732Z,40
2017-03-09T15:34:52.262Z,45
2017-03-09T15:36:06.142Z,45
2017-03-09T15:37:19.679Z,45
2017-03-09T15:38:33.120Z,50
2017-03-09T15:39:47.015Z,60
2017-03-09T15:41:00.907Z,80
2017-03-09T15:43:44.143Z,70
2017-03-09T15:45:05.308Z,55
2017-03-09T15:46:28.967Z,60
2017-03-09T15:47:53.921Z,50
2017-03-09T15:49:16.931Z,45
2017-03-09T15:50:33.647Z,50
2017-03-09T15:51:47.528Z,50
2017-03-09T15:53:01.538Z,55
2017-03-09T15:54:15.490Z,55
2017-03-09T15:55:55.109Z,50
2017-03-09T15:57:08.644Z,55
2017-03-09T15:58:22.348Z,65
2017-03-09T15:59:35.843Z,70
2017-03-09T16:00:49.310Z,65
2017-03-09T16:02:03.236Z,60
2017-03-09T16:03:17.274Z,60
2017-03-09T16:04:32.543Z,70
2017-03-09T16:05:47.129Z,70
2017-03-09T16:07:01.447Z,65
2017-03-09T16:08:15.375Z,65
2017-03-09T16:09:29.107Z,65
2017-03-09T16:10:42.664Z,65
2017-03-09T16:11:56.157Z,60
2017-03-09T16:13:09.949Z,60
2017-03-09T16:14:24.498Z,60
2017-03-09T16:15:38.267Z,60
2017-03-09T16:16:51.736Z,60
2017-03-09T16:18:05.178Z,60
2017-03-09T16:19:18.665Z,60
2017-03-09T16:20:34.796Z,60
2017-03-09T16:21:48.558Z,60
2017-03-09T16:23:02.167Z,60
2017-03-09T16:24:15.742Z,65
2017-03-09T16:25:30.037Z,65
2017-03-09T16:26:43.596Z,60
2017-03-09T16:27:57.339Z,60
2017-03-09T16:29:10.818Z,60
2017-03-09T16:30:24.394Z,60
2017-03-09T16:31:37.902Z,60
2017-03-09T16:32:51.380Z,60
2017-03-09T16:34:05.135Z,55
2017-03-09T16:35:18.776Z,50
2017-03-09T16:36:32.215Z,50
2017-03-09T16:37:45.705Z,45
2017-03-09T16:38:59.744Z,45
2017-03-09T16:40:13.586Z,40
2017-03-09T16:41:28.006Z,40
2017-03-09T16:42:41.596Z,40
2017-03-09T16:43:56.139Z,35
2017-03-09T16:45:10.796Z,25
2017-03-09T16:46:25.132Z,25
2017-03-09T16:47:39.001Z,20
2017-03-09T16:48:52.461Z,15
2017-03-09T16:50:06.395Z,15
2017-03-09T16:51:20.546Z,20
2017-03-09T16:52:34.492Z,20
2017-03-09T16:53:48.665Z,15
2017-03-09T16:55:02.200Z,20
2017-03-09T16:56:15.784Z,25
2017-03-09T16:57:29.386Z,25
2017-03-09T16:58:43.118Z,20
2017-03-09T16:59:56.652Z,15
2017-03-09T17:01:11.410Z,15
2017-03-09T17:02:24.959Z,15
2017-03-09T17:03:38.834Z,15
2017-03-09T17:04:53.199Z,15
2017-03-09T17:06:07.062Z,15
2017-03-09T17:07:20.588Z,15
2017-03-09T17:08:34.058Z,10
2017-03-09T17:09:47.959Z,10
2017-03-09T17:11:01.405Z,10
2017-03-09T17:12:15.012Z,10
2017-03-09T17:13:28.522Z,10
2017-03-09T17:14:42.070Z,5
2017-03-09T17:15:55.513Z,5
2017-03-09T17:17:13.987Z,5
2017-03-09T17:18:28.672Z,5
2017-03-09T17:19:42.981Z,5
2017-03-09T17:20:57.293Z,5
2017-03-09T17:22:10.777Z,0
2017-03-09T17:23:24.237Z,0
2017-03-09T17:24:37.738Z,0
2017-03-09T17:25:51.238Z,0
2017-03-09T17:27:04.695Z,0
2017-03-09T17:28:19.280Z,0
2017-03-09T17:29:33.586Z,0
2017-03-09T17:30:47.146Z,0
2017-03-09T17:32:01.310Z,0
2017-03-09T17:33:15.122Z,0
2017-03-09T17:34:28.667Z,0
2017-03-09T17:35:42.886Z,0
2017-03-09T17:36:59.408Z,0
2017-03-09T17:38:13.009Z,0
2017-03-09T17:39:26.490Z,0
2017-03-09T17:40:39.995Z,0
2017-03-09T17:41:53.771Z,0
2017-03-09T17:43:07.307Z,0
2017-03-09T17:44:20.853Z,0
2017-03-09T17:45:34.790Z,0
2017-03-09T17:46:48.298Z,0
2017-03-09T17:48:02.084Z,0
2017-03-09T17:49:15.775Z,0
2017-03-09T17:50:29.256Z,0
2017-03-09T17:51:42.789Z,0
2017-03-09T17:52:56.443Z,0
2017-03-09T17:54:10.339Z,0
2017-03-09T17:55:24.727Z,0
2017-03-09T17:56:38.248Z,0